sensor_id;sensor_type;location;lat;lon;timestamp;P1;durP1;ratioP1;P2;durP2;ratioP2
10132;SDS011;5106;50.926;7.080;2024-01-16T00:00:45;7.67;;;4.83;;
10132;SDS011;5106;50.926;7.080;2024-01-16T00:03:11;7.03;;;4.70;;
10132;SDS011;5106;50.926;7.080;2024-01-16T00:05:37;6.70;;;4.87;;
10132;SDS011;5106;50.926;7.080;2024-01-16T00:08:03;6.10;;;4.77;;
10132;SDS011;5106;50.926;7.080;2024-01-16T00:10:28;6.93;;;5.00;;
10132;SDS011;5106;50.926;7.080;2024-01-16T00:12:54;7.03;;;4.90;;
10132;SDS011;5106;50.926;7.080;2024-01-16T00:15:20;10.83;;;5.03;;
10132;SDS011;5106;50.926;7.080;2024-01-16T00:17:45;9.03;;;5.37;;
10132;SDS011;5106;50.926;7.080;2024-01-16T00:20:11;5.90;;;5.17;;
10132;SDS011;5106;50.926;7.080;2024-01-16T00:22:36;9.10;;;5.27;;
10132;SDS011;5106;50.926;7.080;2024-01-16T00:25:02;9.43;;;5.23;;
10132;SDS011;5106;50.926;7.080;2024-01-16T00:27:28;8.37;;;5.23;;
10132;SDS011;5106;50.926;7.080;2024-01-16T00:29:53;8.20;;;5.63;;
10132;SDS011;5106;50.926;7.080;2024-01-16T00:32:19;10.00;;;5.50;;
10132;SDS011;5106;50.926;7.080;2024-01-16T00:34:45;10.93;;;5.30;;
10132;SDS011;5106;50.926;7.080;2024-01-16T00:37:10;10.90;;;5.50;;
10132;SDS011;5106;50.926;7.080;2024-01-16T00:39:36;10.63;;;5.77;;
10132;SDS011;5106;50.926;7.080;2024-01-16T00:42:02;8.87;;;5.47;;
10132;SDS011;5106;50.926;7.080;2024-01-16T00:44:27;6.80;;;5.40;;
10132;SDS011;5106;50.926;7.080;2024-01-16T00:46:53;8.77;;;5.90;;
10132;SDS011;5106;50.926;7.080;2024-01-16T00:49:19;8.30;;;6.00;;
10132;SDS011;5106;50.926;7.080;2024-01-16T00:51:45;10.27;;;5.73;;
10132;SDS011;5106;50.926;7.080;2024-01-16T00:54:10;9.73;;;5.43;;
10132;SDS011;5106;50.926;7.080;2024-01-16T00:56:36;9.97;;;5.53;;
10132;SDS011;5106;50.926;7.080;2024-01-16T00:59:02;11.43;;;5.90;;
10132;SDS011;5106;50.926;7.080;2024-01-16T01:01:27;7.90;;;5.63;;
10132;SDS011;5106;50.926;7.080;2024-01-16T01:03:53;8.93;;;6.00;;
10132;SDS011;5106;50.926;7.080;2024-01-16T01:06:18;11.07;;;5.57;;
10132;SDS011;5106;50.926;7.080;2024-01-16T01:08:44;9.93;;;5.93;;
10132;SDS011;5106;50.926;7.080;2024-01-16T01:11:11;11.27;;;6.40;;
10132;SDS011;5106;50.926;7.080;2024-01-16T01:13:37;10.87;;;6.13;;
10132;SDS011;5106;50.926;7.080;2024-01-16T01:16:03;8.60;;;6.37;;
10132;SDS011;5106;50.926;7.080;2024-01-16T01:18:29;9.60;;;5.73;;
10132;SDS011;5106;50.926;7.080;2024-01-16T01:20:54;7.00;;;5.57;;
10132;SDS011;5106;50.926;7.080;2024-01-16T01:23:21;8.40;;;5.93;;
10132;SDS011;5106;50.926;7.080;2024-01-16T01:25:46;9.77;;;5.73;;
10132;SDS011;5106;50.926;7.080;2024-01-16T01:28:12;9.97;;;6.17;;
10132;SDS011;5106;50.926;7.080;2024-01-16T01:30:37;9.47;;;6.03;;
10132;SDS011;5106;50.926;7.080;2024-01-16T01:33:03;9.50;;;5.97;;
10132;SDS011;5106;50.926;7.080;2024-01-16T01:35:29;6.87;;;5.30;;
10132;SDS011;5106;50.926;7.080;2024-01-16T01:37:54;9.03;;;5.80;;
10132;SDS011;5106;50.926;7.080;2024-01-16T01:40:20;8.47;;;5.40;;
10132;SDS011;5106;50.926;7.080;2024-01-16T01:42:46;7.97;;;5.00;;
10132;SDS011;5106;50.926;7.080;2024-01-16T01:45:11;7.63;;;4.90;;
10132;SDS011;5106;50.926;7.080;2024-01-16T01:47:37;9.13;;;5.03;;
10132;SDS011;5106;50.926;7.080;2024-01-16T01:50:06;9.93;;;4.97;;
10132;SDS011;5106;50.926;7.080;2024-01-16T01:52:33;7.00;;;5.10;;
10132;SDS011;5106;50.926;7.080;2024-01-16T01:54:59;8.27;;;4.57;;
10132;SDS011;5106;50.926;7.080;2024-01-16T01:57:25;7.30;;;4.10;;
10132;SDS011;5106;50.926;7.080;2024-01-16T01:59:51;4.77;;;4.10;;
10132;SDS011;5106;50.926;7.080;2024-01-16T02:02:17;6.27;;;4.40;;
10132;SDS011;5106;50.926;7.080;2024-01-16T02:04:43;6.77;;;3.93;;
10132;SDS011;5106;50.926;7.080;2024-01-16T02:07:11;6.57;;;4.43;;
10132;SDS011;5106;50.926;7.080;2024-01-16T02:09:37;7.33;;;4.63;;
10132;SDS011;5106;50.926;7.080;2024-01-16T02:12:05;7.27;;;4.63;;
10132;SDS011;5106;50.926;7.080;2024-01-16T02:14:31;10.07;;;5.10;;
10132;SDS011;5106;50.926;7.080;2024-01-16T02:16:56;11.03;;;4.90;;
10132;SDS011;5106;50.926;7.080;2024-01-16T02:19:22;7.27;;;4.97;;
10132;SDS011;5106;50.926;7.080;2024-01-16T02:21:49;7.87;;;5.00;;
10132;SDS011;5106;50.926;7.080;2024-01-16T02:24:18;10.27;;;5.23;;
10132;SDS011;5106;50.926;7.080;2024-01-16T02:26:44;7.10;;;5.50;;
10132;SDS011;5106;50.926;7.080;2024-01-16T02:29:10;9.47;;;6.00;;
10132;SDS011;5106;50.926;7.080;2024-01-16T02:31:36;8.07;;;6.00;;
10132;SDS011;5106;50.926;7.080;2024-01-16T02:34:02;12.60;;;6.10;;
10132;SDS011;5106;50.926;7.080;2024-01-16T02:36:29;9.03;;;6.17;;
10132;SDS011;5106;50.926;7.080;2024-01-16T02:38:55;11.13;;;6.00;;
10132;SDS011;5106;50.926;7.080;2024-01-16T02:41:21;7.83;;;6.17;;
10132;SDS011;5106;50.926;7.080;2024-01-16T02:43:46;9.83;;;6.00;;
10132;SDS011;5106;50.926;7.080;2024-01-16T02:46:12;7.57;;;5.83;;
10132;SDS011;5106;50.926;7.080;2024-01-16T02:48:39;11.00;;;5.67;;
10132;SDS011;5106;50.926;7.080;2024-01-16T02:51:04;8.17;;;5.67;;
10132;SDS011;5106;50.926;7.080;2024-01-16T02:53:30;10.33;;;5.70;;
10132;SDS011;5106;50.926;7.080;2024-01-16T02:55:56;11.33;;;5.80;;
10132;SDS011;5106;50.926;7.080;2024-01-16T02:58:24;9.53;;;5.33;;
10132;SDS011;5106;50.926;7.080;2024-01-16T03:00:50;10.67;;;5.50;;
10132;SDS011;5106;50.926;7.080;2024-01-16T03:03:16;10.73;;;5.30;;
10132;SDS011;5106;50.926;7.080;2024-01-16T03:05:42;10.50;;;5.47;;
10132;SDS011;5106;50.926;7.080;2024-01-16T03:08:08;9.03;;;5.00;;
10132;SDS011;5106;50.926;7.080;2024-01-16T03:10:33;10.57;;;5.50;;
10132;SDS011;5106;50.926;7.080;2024-01-16T03:12:59;8.70;;;4.73;;
10132;SDS011;5106;50.926;7.080;2024-01-16T03:15:24;9.98;;;5.70;;
10132;SDS011;5106;50.926;7.080;2024-01-16T03:17:50;9.57;;;5.17;;
10132;SDS011;5106;50.926;7.080;2024-01-16T03:20:17;9.83;;;5.37;;
10132;SDS011;5106;50.926;7.080;2024-01-16T03:22:43;9.30;;;5.27;;
10132;SDS011;5106;50.926;7.080;2024-01-16T03:25:09;8.53;;;5.07;;
10132;SDS011;5106;50.926;7.080;2024-01-16T03:27:37;10.10;;;5.10;;
10132;SDS011;5106;50.926;7.080;2024-01-16T03:30:03;7.63;;;4.90;;
10132;SDS011;5106;50.926;7.080;2024-01-16T03:32:28;9.20;;;5.50;;
10132;SDS011;5106;50.926;7.080;2024-01-16T03:34:54;8.10;;;5.33;;
10132;SDS011;5106;50.926;7.080;2024-01-16T03:37:20;6.63;;;4.70;;
10132;SDS011;5106;50.926;7.080;2024-01-16T03:39:45;8.30;;;4.93;;
10132;SDS011;5106;50.926;7.080;2024-01-16T03:42:11;8.17;;;5.10;;
10132;SDS011;5106;50.926;7.080;2024-01-16T03:44:41;7.33;;;5.00;;
10132;SDS011;5106;50.926;7.080;2024-01-16T03:47:07;8.97;;;5.10;;
10132;SDS011;5106;50.926;7.080;2024-01-16T03:49:33;11.17;;;5.73;;
10132;SDS011;5106;50.926;7.080;2024-01-16T03:51:58;8.97;;;5.43;;
10132;SDS011;5106;50.926;7.080;2024-01-16T03:54:24;9.87;;;5.37;;
10132;SDS011;5106;50.926;7.080;2024-01-16T03:56:50;12.73;;;5.80;;
10132;SDS011;5106;50.926;7.080;2024-01-16T03:59:16;12.60;;;6.00;;
10132;SDS011;5106;50.926;7.080;2024-01-16T04:01:41;11.03;;;5.50;;
10132;SDS011;5106;50.926;7.080;2024-01-16T04:04:09;10.27;;;6.20;;
10132;SDS011;5106;50.926;7.080;2024-01-16T04:06:35;9.50;;;5.87;;
10132;SDS011;5106;50.926;7.080;2024-01-16T04:09:01;9.07;;;6.07;;
10132;SDS011;5106;50.926;7.080;2024-01-16T04:11:28;9.33;;;6.13;;
10132;SDS011;5106;50.926;7.080;2024-01-16T04:13:53;9.97;;;6.53;;
10132;SDS011;5106;50.926;7.080;2024-01-16T04:16:19;8.63;;;5.70;;
10132;SDS011;5106;50.926;7.080;2024-01-16T04:18:45;10.97;;;5.83;;
10132;SDS011;5106;50.926;7.080;2024-01-16T04:21:10;10.93;;;6.30;;
10132;SDS011;5106;50.926;7.080;2024-01-16T04:23:36;14.93;;;6.47;;
10132;SDS011;5106;50.926;7.080;2024-01-16T04:26:02;12.23;;;6.03;;
10132;SDS011;5106;50.926;7.080;2024-01-16T04:28:27;7.97;;;6.30;;
10132;SDS011;5106;50.926;7.080;2024-01-16T04:30:53;10.93;;;6.40;;
10132;SDS011;5106;50.926;7.080;2024-01-16T04:33:19;9.50;;;5.87;;
10132;SDS011;5106;50.926;7.080;2024-01-16T04:35:44;10.27;;;6.37;;
10132;SDS011;5106;50.926;7.080;2024-01-16T04:38:10;11.30;;;7.03;;
10132;SDS011;5106;50.926;7.080;2024-01-16T04:40:36;12.80;;;6.77;;
10132;SDS011;5106;50.926;7.080;2024-01-16T04:43:02;11.57;;;7.27;;
10132;SDS011;5106;50.926;7.080;2024-01-16T04:45:27;9.70;;;6.53;;
10132;SDS011;5106;50.926;7.080;2024-01-16T04:47:53;10.70;;;7.07;;
10132;SDS011;5106;50.926;7.080;2024-01-16T04:50:19;12.33;;;6.60;;
10132;SDS011;5106;50.926;7.080;2024-01-16T04:52:44;10.90;;;6.87;;
10132;SDS011;5106;50.926;7.080;2024-01-16T04:55:10;13.07;;;6.30;;
10132;SDS011;5106;50.926;7.080;2024-01-16T04:57:36;10.67;;;6.40;;
10132;SDS011;5106;50.926;7.080;2024-01-16T05:00:01;8.60;;;5.53;;
10132;SDS011;5106;50.926;7.080;2024-01-16T05:02:31;9.63;;;5.93;;
10132;SDS011;5106;50.926;7.080;2024-01-16T05:04:57;12.90;;;5.80;;
10132;SDS011;5106;50.926;7.080;2024-01-16T05:07:23;8.83;;;5.57;;
10132;SDS011;5106;50.926;7.080;2024-01-16T05:09:49;11.03;;;5.93;;
10132;SDS011;5106;50.926;7.080;2024-01-16T05:12:14;8.70;;;5.60;;
10132;SDS011;5106;50.926;7.080;2024-01-16T05:14:40;9.73;;;5.17;;
10132;SDS011;5106;50.926;7.080;2024-01-16T05:17:06;10.10;;;5.60;;
10132;SDS011;5106;50.926;7.080;2024-01-16T05:19:31;8.63;;;6.13;;
10132;SDS011;5106;50.926;7.080;2024-01-16T05:21:57;11.27;;;5.10;;
10132;SDS011;5106;50.926;7.080;2024-01-16T05:24:23;8.50;;;5.13;;
10132;SDS011;5106;50.926;7.080;2024-01-16T05:26:48;8.50;;;5.20;;
10132;SDS011;5106;50.926;7.080;2024-01-16T05:29:14;11.50;;;5.23;;
10132;SDS011;5106;50.926;7.080;2024-01-16T05:31:42;8.23;;;5.60;;
10132;SDS011;5106;50.926;7.080;2024-01-16T05:34:11;9.37;;;5.30;;
10132;SDS011;5106;50.926;7.080;2024-01-16T05:36:36;9.77;;;5.00;;
10132;SDS011;5106;50.926;7.080;2024-01-16T05:39:03;8.63;;;5.07;;
10132;SDS011;5106;50.926;7.080;2024-01-16T05:41:33;9.50;;;5.03;;
10132;SDS011;5106;50.926;7.080;2024-01-16T05:43:59;9.53;;;5.10;;
10132;SDS011;5106;50.926;7.080;2024-01-16T05:46:25;10.53;;;5.60;;
10132;SDS011;5106;50.926;7.080;2024-01-16T05:48:51;7.50;;;5.00;;
10132;SDS011;5106;50.926;7.080;2024-01-16T05:51:17;9.73;;;4.93;;
10132;SDS011;5106;50.926;7.080;2024-01-16T05:53:43;11.00;;;5.67;;
10132;SDS011;5106;50.926;7.080;2024-01-16T05:56:08;9.97;;;6.17;;
10132;SDS011;5106;50.926;7.080;2024-01-16T05:58:34;5.47;;;4.57;;
10132;SDS011;5106;50.926;7.080;2024-01-16T06:01:04;11.77;;;5.27;;
10132;SDS011;5106;50.926;7.080;2024-01-16T06:03:30;10.63;;;4.87;;
10132;SDS011;5106;50.926;7.080;2024-01-16T06:05:55;6.90;;;5.33;;
10132;SDS011;5106;50.926;7.080;2024-01-16T06:08:21;9.13;;;4.97;;
10132;SDS011;5106;50.926;7.080;2024-01-16T06:10:46;10.73;;;5.50;;
10132;SDS011;5106;50.926;7.080;2024-01-16T06:13:12;9.03;;;4.27;;
10132;SDS011;5106;50.926;7.080;2024-01-16T06:15:38;10.57;;;5.07;;
10132;SDS011;5106;50.926;7.080;2024-01-16T06:18:03;6.43;;;4.53;;
10132;SDS011;5106;50.926;7.080;2024-01-16T06:20:29;8.00;;;4.40;;
10132;SDS011;5106;50.926;7.080;2024-01-16T06:22:55;8.67;;;4.50;;
10132;SDS011;5106;50.926;7.080;2024-01-16T06:25:21;10.03;;;4.90;;
10132;SDS011;5106;50.926;7.080;2024-01-16T06:27:47;7.73;;;4.50;;
10132;SDS011;5106;50.926;7.080;2024-01-16T06:30:12;9.37;;;4.60;;
10132;SDS011;5106;50.926;7.080;2024-01-16T06:32:38;6.00;;;4.20;;
10132;SDS011;5106;50.926;7.080;2024-01-16T06:35:04;9.60;;;4.67;;
10132;SDS011;5106;50.926;7.080;2024-01-16T06:37:30;11.33;;;4.63;;
10132;SDS011;5106;50.926;7.080;2024-01-16T06:39:56;9.17;;;4.63;;
10132;SDS011;5106;50.926;7.080;2024-01-16T06:42:22;7.53;;;4.30;;
10132;SDS011;5106;50.926;7.080;2024-01-16T06:44:47;8.23;;;4.10;;
10132;SDS011;5106;50.926;7.080;2024-01-16T06:47:13;12.40;;;4.80;;
10132;SDS011;5106;50.926;7.080;2024-01-16T06:49:38;10.23;;;5.80;;
10132;SDS011;5106;50.926;7.080;2024-01-16T06:52:04;8.60;;;4.73;;
10132;SDS011;5106;50.926;7.080;2024-01-16T06:54:30;9.70;;;4.67;;
10132;SDS011;5106;50.926;7.080;2024-01-16T06:56:55;9.70;;;4.60;;
10132;SDS011;5106;50.926;7.080;2024-01-16T06:59:21;11.43;;;5.30;;
10132;SDS011;5106;50.926;7.080;2024-01-16T07:01:47;11.10;;;5.07;;
10132;SDS011;5106;50.926;7.080;2024-01-16T07:04:12;9.20;;;4.83;;
10132;SDS011;5106;50.926;7.080;2024-01-16T07:06:39;13.27;;;4.50;;
10132;SDS011;5106;50.926;7.080;2024-01-16T07:09:05;6.50;;;4.00;;
10132;SDS011;5106;50.926;7.080;2024-01-16T07:11:30;9.93;;;3.90;;
10132;SDS011;5106;50.926;7.080;2024-01-16T07:13:56;8.87;;;3.87;;
10132;SDS011;5106;50.926;7.080;2024-01-16T07:16:22;9.90;;;4.07;;
10132;SDS011;5106;50.926;7.080;2024-01-16T07:18:48;8.87;;;3.90;;
10132;SDS011;5106;50.926;7.080;2024-01-16T07:21:17;8.33;;;3.63;;
10132;SDS011;5106;50.926;7.080;2024-01-16T07:23:43;10.30;;;4.27;;
10132;SDS011;5106;50.926;7.080;2024-01-16T07:26:09;11.13;;;4.20;;
10132;SDS011;5106;50.926;7.080;2024-01-16T07:28:35;8.67;;;3.40;;
10132;SDS011;5106;50.926;7.080;2024-01-16T07:31:00;11.03;;;4.23;;
10132;SDS011;5106;50.926;7.080;2024-01-16T07:33:26;11.70;;;3.77;;
10132;SDS011;5106;50.926;7.080;2024-01-16T07:35:51;11.70;;;4.23;;
10132;SDS011;5106;50.926;7.080;2024-01-16T07:38:18;9.77;;;3.53;;
10132;SDS011;5106;50.926;7.080;2024-01-16T07:40:44;6.60;;;3.70;;
10132;SDS011;5106;50.926;7.080;2024-01-16T07:43:09;8.93;;;4.20;;
10132;SDS011;5106;50.926;7.080;2024-01-16T07:45:35;8.90;;;4.50;;
10132;SDS011;5106;50.926;7.080;2024-01-16T07:48:00;7.57;;;3.27;;
10132;SDS011;5106;50.926;7.080;2024-01-16T07:50:26;7.23;;;3.00;;
10132;SDS011;5106;50.926;7.080;2024-01-16T07:52:51;6.90;;;2.77;;
10132;SDS011;5106;50.926;7.080;2024-01-16T07:55:17;5.30;;;2.33;;
10132;SDS011;5106;50.926;7.080;2024-01-16T07:57:43;8.37;;;2.67;;
10132;SDS011;5106;50.926;7.080;2024-01-16T08:00:09;5.10;;;2.03;;
10132;SDS011;5106;50.926;7.080;2024-01-16T08:02:38;6.33;;;2.27;;
10132;SDS011;5106;50.926;7.080;2024-01-16T08:05:04;5.43;;;2.00;;
10132;SDS011;5106;50.926;7.080;2024-01-16T08:07:30;8.47;;;3.27;;
10132;SDS011;5106;50.926;7.080;2024-01-16T08:09:56;9.50;;;3.07;;
10132;SDS011;5106;50.926;7.080;2024-01-16T08:12:22;8.23;;;4.27;;
10132;SDS011;5106;50.926;7.080;2024-01-16T08:14:47;5.47;;;2.43;;
10132;SDS011;5106;50.926;7.080;2024-01-16T08:17:13;5.27;;;3.20;;
10132;SDS011;5106;50.926;7.080;2024-01-16T08:19:38;8.07;;;3.50;;
10132;SDS011;5106;50.926;7.080;2024-01-16T08:22:04;6.63;;;3.67;;
10132;SDS011;5106;50.926;7.080;2024-01-16T08:24:29;8.53;;;4.67;;
10132;SDS011;5106;50.926;7.080;2024-01-16T08:26:56;8.43;;;3.33;;
10132;SDS011;5106;50.926;7.080;2024-01-16T08:29:24;7.97;;;3.87;;
10132;SDS011;5106;50.926;7.080;2024-01-16T08:31:50;7.90;;;2.90;;
10132;SDS011;5106;50.926;7.080;2024-01-16T08:34:19;12.60;;;5.07;;
10132;SDS011;5106;50.926;7.080;2024-01-16T08:36:44;10.97;;;4.07;;
10132;SDS011;5106;50.926;7.080;2024-01-16T08:39:11;7.10;;;3.73;;
10132;SDS011;5106;50.926;7.080;2024-01-16T08:41:36;6.73;;;3.27;;
10132;SDS011;5106;50.926;7.080;2024-01-16T08:44:02;6.83;;;3.20;;
10132;SDS011;5106;50.926;7.080;2024-01-16T08:46:28;7.10;;;2.87;;
10132;SDS011;5106;50.926;7.080;2024-01-16T08:48:53;6.00;;;2.93;;
10132;SDS011;5106;50.926;7.080;2024-01-16T08:51:19;4.20;;;2.27;;
10132;SDS011;5106;50.926;7.080;2024-01-16T08:53:45;5.97;;;2.10;;
10132;SDS011;5106;50.926;7.080;2024-01-16T08:56:11;6.27;;;2.60;;
10132;SDS011;5106;50.926;7.080;2024-01-16T08:58:37;4.93;;;2.50;;
10132;SDS011;5106;50.926;7.080;2024-01-16T09:01:03;6.07;;;2.77;;
10132;SDS011;5106;50.926;7.080;2024-01-16T09:03:33;7.43;;;2.23;;
10132;SDS011;5106;50.926;7.080;2024-01-16T09:05:59;10.50;;;3.70;;
10132;SDS011;5106;50.926;7.080;2024-01-16T09:08:25;4.60;;;2.23;;
10132;SDS011;5106;50.926;7.080;2024-01-16T09:10:51;7.17;;;2.80;;
10132;SDS011;5106;50.926;7.080;2024-01-16T09:13:17;7.17;;;2.50;;
10132;SDS011;5106;50.926;7.080;2024-01-16T09:15:43;5.77;;;2.17;;
10132;SDS011;5106;50.926;7.080;2024-01-16T09:18:08;5.30;;;2.33;;
10132;SDS011;5106;50.926;7.080;2024-01-16T09:20:34;4.50;;;2.13;;
10132;SDS011;5106;50.926;7.080;2024-01-16T09:23:00;7.80;;;2.33;;
10132;SDS011;5106;50.926;7.080;2024-01-16T09:25:25;6.90;;;2.47;;
10132;SDS011;5106;50.926;7.080;2024-01-16T09:27:52;4.77;;;2.20;;
10132;SDS011;5106;50.926;7.080;2024-01-16T09:30:18;8.30;;;2.00;;
10132;SDS011;5106;50.926;7.080;2024-01-16T09:32:44;7.90;;;2.40;;
10132;SDS011;5106;50.926;7.080;2024-01-16T09:35:10;6.73;;;1.90;;
10132;SDS011;5106;50.926;7.080;2024-01-16T09:37:36;6.23;;;2.23;;
10132;SDS011;5106;50.926;7.080;2024-01-16T09:40:01;4.93;;;1.60;;
10132;SDS011;5106;50.926;7.080;2024-01-16T09:42:30;3.30;;;1.53;;
10132;SDS011;5106;50.926;7.080;2024-01-16T09:44:56;5.93;;;2.27;;
10132;SDS011;5106;50.926;7.080;2024-01-16T09:47:22;4.90;;;2.03;;
10132;SDS011;5106;50.926;7.080;2024-01-16T09:49:49;5.83;;;2.07;;
10132;SDS011;5106;50.926;7.080;2024-01-16T09:52:15;4.07;;;1.70;;
10132;SDS011;5106;50.926;7.080;2024-01-16T09:54:41;6.50;;;2.17;;
10132;SDS011;5106;50.926;7.080;2024-01-16T09:57:07;6.37;;;2.30;;
10132;SDS011;5106;50.926;7.080;2024-01-16T09:59:35;8.80;;;2.30;;
10132;SDS011;5106;50.926;7.080;2024-01-16T10:02:04;7.43;;;1.90;;
10132;SDS011;5106;50.926;7.080;2024-01-16T10:04:32;11.07;;;3.43;;
10132;SDS011;5106;50.926;7.080;2024-01-16T10:06:59;7.63;;;2.10;;
10132;SDS011;5106;50.926;7.080;2024-01-16T10:09:26;7.33;;;2.00;;
10132;SDS011;5106;50.926;7.080;2024-01-16T10:11:52;6.13;;;2.13;;
10132;SDS011;5106;50.926;7.080;2024-01-16T10:14:19;3.73;;;2.07;;
10132;SDS011;5106;50.926;7.080;2024-01-16T10:19:47;4.37;;;2.10;;
10132;SDS011;5106;50.926;7.080;2024-01-16T10:22:14;6.60;;;2.30;;
10132;SDS011;5106;50.926;7.080;2024-01-16T10:24:46;7.87;;;2.67;;
10132;SDS011;5106;50.926;7.080;2024-01-16T10:27:11;5.40;;;2.10;;
10132;SDS011;5106;50.926;7.080;2024-01-16T10:29:55;6.27;;;2.20;;
10132;SDS011;5106;50.926;7.080;2024-01-16T10:32:28;4.03;;;2.17;;
10132;SDS011;5106;50.926;7.080;2024-01-16T10:37:30;7.40;;;2.23;;
10132;SDS011;5106;50.926;7.080;2024-01-16T10:40:05;7.23;;;2.10;;
10132;SDS011;5106;50.926;7.080;2024-01-16T10:42:32;4.17;;;2.00;;
10132;SDS011;5106;50.926;7.080;2024-01-16T10:44:58;4.83;;;1.90;;
10132;SDS011;5106;50.926;7.080;2024-01-16T10:47:23;5.20;;;2.43;;
10132;SDS011;5106;50.926;7.080;2024-01-16T10:49:49;5.70;;;2.50;;
10132;SDS011;5106;50.926;7.080;2024-01-16T10:52:15;5.93;;;2.73;;
10132;SDS011;5106;50.926;7.080;2024-01-16T10:54:43;7.87;;;2.40;;
10132;SDS011;5106;50.926;7.080;2024-01-16T10:57:12;5.23;;;2.43;;
10132;SDS011;5106;50.926;7.080;2024-01-16T11:02:03;7.23;;;3.70;;
10132;SDS011;5106;50.926;7.080;2024-01-16T11:04:34;5.60;;;2.70;;
10132;SDS011;5106;50.926;7.080;2024-01-16T11:07:02;5.40;;;2.40;;
10132;SDS011;5106;50.926;7.080;2024-01-16T11:09:29;6.93;;;2.23;;
10132;SDS011;5106;50.926;7.080;2024-01-16T11:11:56;6.57;;;2.27;;
10132;SDS011;5106;50.926;7.080;2024-01-16T11:14:23;5.90;;;2.30;;
10132;SDS011;5106;50.926;7.080;2024-01-16T11:16:51;8.27;;;1.80;;
10132;SDS011;5106;50.926;7.080;2024-01-16T11:19:18;5.13;;;2.33;;
10132;SDS011;5106;50.926;7.080;2024-01-16T11:21:45;7.90;;;2.27;;
10132;SDS011;5106;50.926;7.080;2024-01-16T11:24:11;3.37;;;2.07;;
10132;SDS011;5106;50.926;7.080;2024-01-16T11:26:40;7.20;;;1.97;;
10132;SDS011;5106;50.926;7.080;2024-01-16T11:31:53;4.83;;;2.30;;
10132;SDS011;5106;50.926;7.080;2024-01-16T11:37:07;5.10;;;2.53;;
10132;SDS011;5106;50.926;7.080;2024-01-16T11:39:34;5.80;;;2.07;;
10132;SDS011;5106;50.926;7.080;2024-01-16T11:42:00;6.13;;;2.40;;
10132;SDS011;5106;50.926;7.080;2024-01-16T11:44:48;6.73;;;2.07;;
10132;SDS011;5106;50.926;7.080;2024-01-16T11:47:25;5.23;;;2.07;;
10132;SDS011;5106;50.926;7.080;2024-01-16T11:49:51;5.10;;;1.83;;
10132;SDS011;5106;50.926;7.080;2024-01-16T11:52:39;4.97;;;1.70;;
10132;SDS011;5106;50.926;7.080;2024-01-16T12:01:07;11.63;;;2.40;;
10132;SDS011;5106;50.926;7.080;2024-01-16T12:03:33;6.93;;;2.20;;
10132;SDS011;5106;50.926;7.080;2024-01-16T12:05:59;4.20;;;1.90;;
10132;SDS011;5106;50.926;7.080;2024-01-16T12:08:25;7.07;;;2.20;;
10132;SDS011;5106;50.926;7.080;2024-01-16T12:10:51;7.00;;;2.90;;
10132;SDS011;5106;50.926;7.080;2024-01-16T12:13:17;6.03;;;2.47;;
10132;SDS011;5106;50.926;7.080;2024-01-16T12:15:43;6.50;;;2.77;;
10132;SDS011;5106;50.926;7.080;2024-01-16T12:18:09;5.30;;;2.20;;
10132;SDS011;5106;50.926;7.080;2024-01-16T12:20:38;3.70;;;1.77;;
10132;SDS011;5106;50.926;7.080;2024-01-16T12:23:04;5.27;;;2.20;;
10132;SDS011;5106;50.926;7.080;2024-01-16T12:25:34;5.90;;;2.27;;
10132;SDS011;5106;50.926;7.080;2024-01-16T12:28:01;6.57;;;3.00;;
10132;SDS011;5106;50.926;7.080;2024-01-16T12:30:34;5.70;;;2.03;;
10132;SDS011;5106;50.926;7.080;2024-01-16T12:33:07;6.57;;;2.60;;
10132;SDS011;5106;50.926;7.080;2024-01-16T12:35:36;4.27;;;2.00;;
10132;SDS011;5106;50.926;7.080;2024-01-16T12:38:02;3.23;;;1.53;;
10132;SDS011;5106;50.926;7.080;2024-01-16T12:40:50;3.70;;;1.77;;
10132;SDS011;5106;50.926;7.080;2024-01-16T12:43:17;5.07;;;1.93;;
10132;SDS011;5106;50.926;7.080;2024-01-16T12:45:43;4.30;;;1.90;;
10132;SDS011;5106;50.926;7.080;2024-01-16T12:48:10;3.27;;;1.80;;
10132;SDS011;5106;50.926;7.080;2024-01-16T12:50:35;4.83;;;1.77;;
10132;SDS011;5106;50.926;7.080;2024-01-16T12:55:29;11.93;;;2.73;;
10132;SDS011;5106;50.926;7.080;2024-01-16T13:00:40;5.97;;;2.40;;
10132;SDS011;5106;50.926;7.080;2024-01-16T13:03:06;4.47;;;2.17;;
10132;SDS011;5106;50.926;7.080;2024-01-16T13:05:32;9.63;;;2.40;;
10132;SDS011;5106;50.926;7.080;2024-01-16T13:08:04;5.73;;;2.33;;
10132;SDS011;5106;50.926;7.080;2024-01-16T13:10:30;6.10;;;2.60;;
10132;SDS011;5106;50.926;7.080;2024-01-16T13:15:39;7.73;;;2.67;;
10132;SDS011;5106;50.926;7.080;2024-01-16T13:18:05;6.50;;;2.50;;
10132;SDS011;5106;50.926;7.080;2024-01-16T13:20:31;3.90;;;2.23;;
10132;SDS011;5106;50.926;7.080;2024-01-16T13:22:57;4.27;;;2.27;;
10132;SDS011;5106;50.926;7.080;2024-01-16T13:25:23;4.57;;;2.50;;
10132;SDS011;5106;50.926;7.080;2024-01-16T13:27:48;5.37;;;2.40;;
10132;SDS011;5106;50.926;7.080;2024-01-16T13:30:14;9.07;;;3.10;;
10132;SDS011;5106;50.926;7.080;2024-01-16T13:32:42;6.33;;;2.80;;
10132;SDS011;5106;50.926;7.080;2024-01-16T13:35:07;6.50;;;2.53;;
10132;SDS011;5106;50.926;7.080;2024-01-16T13:37:33;5.13;;;2.33;;
10132;SDS011;5106;50.926;7.080;2024-01-16T13:40:02;5.33;;;2.47;;
10132;SDS011;5106;50.926;7.080;2024-01-16T13:42:33;3.20;;;2.00;;
10132;SDS011;5106;50.926;7.080;2024-01-16T13:45:00;4.20;;;2.40;;
10132;SDS011;5106;50.926;7.080;2024-01-16T13:47:25;4.50;;;2.43;;
10132;SDS011;5106;50.926;7.080;2024-01-16T13:49:51;6.33;;;2.60;;
10132;SDS011;5106;50.926;7.080;2024-01-16T13:52:17;7.40;;;2.50;;
10132;SDS011;5106;50.926;7.080;2024-01-16T13:54:42;5.60;;;2.27;;
10132;SDS011;5106;50.926;7.080;2024-01-16T13:57:09;3.87;;;2.50;;
10132;SDS011;5106;50.926;7.080;2024-01-16T13:59:34;5.57;;;2.43;;
10132;SDS011;5106;50.926;7.080;2024-01-16T14:02:01;4.73;;;2.10;;
10132;SDS011;5106;50.926;7.080;2024-01-16T14:04:28;4.20;;;2.57;;
10132;SDS011;5106;50.926;7.080;2024-01-16T14:06:53;6.53;;;2.33;;
10132;SDS011;5106;50.926;7.080;2024-01-16T14:09:20;4.43;;;2.10;;
10132;SDS011;5106;50.926;7.080;2024-01-16T14:11:45;5.63;;;2.50;;
10132;SDS011;5106;50.926;7.080;2024-01-16T14:14:11;4.03;;;2.50;;
10132;SDS011;5106;50.926;7.080;2024-01-16T14:16:38;6.93;;;2.90;;
10132;SDS011;5106;50.926;7.080;2024-01-16T14:19:03;5.27;;;2.37;;
10132;SDS011;5106;50.926;7.080;2024-01-16T14:21:29;3.43;;;2.20;;
10132;SDS011;5106;50.926;7.080;2024-01-16T14:23:55;4.77;;;2.67;;
10132;SDS011;5106;50.926;7.080;2024-01-16T14:26:20;5.47;;;2.80;;
10132;SDS011;5106;50.926;7.080;2024-01-16T14:28:46;6.63;;;2.63;;
10132;SDS011;5106;50.926;7.080;2024-01-16T14:31:12;4.57;;;2.40;;
10132;SDS011;5106;50.926;7.080;2024-01-16T14:33:37;4.83;;;2.30;;
10132;SDS011;5106;50.926;7.080;2024-01-16T14:36:03;4.40;;;2.50;;
10132;SDS011;5106;50.926;7.080;2024-01-16T14:38:29;8.40;;;2.60;;
10132;SDS011;5106;50.926;7.080;2024-01-16T14:40:55;4.63;;;2.40;;
10132;SDS011;5106;50.926;7.080;2024-01-16T14:43:22;7.73;;;2.80;;
10132;SDS011;5106;50.926;7.080;2024-01-16T14:45:47;6.07;;;2.30;;
10132;SDS011;5106;50.926;7.080;2024-01-16T14:48:14;5.10;;;2.37;;
10132;SDS011;5106;50.926;7.080;2024-01-16T14:50:40;5.13;;;2.37;;
10132;SDS011;5106;50.926;7.080;2024-01-16T14:53:06;6.27;;;2.73;;
10132;SDS011;5106;50.926;7.080;2024-01-16T14:55:32;6.07;;;2.40;;
10132;SDS011;5106;50.926;7.080;2024-01-16T14:57:58;4.80;;;2.43;;
10132;SDS011;5106;50.926;7.080;2024-01-16T15:00:25;6.10;;;2.70;;
10132;SDS011;5106;50.926;7.080;2024-01-16T15:02:52;4.30;;;2.07;;
10132;SDS011;5106;50.926;7.080;2024-01-16T15:05:19;5.87;;;2.30;;
10132;SDS011;5106;50.926;7.080;2024-01-16T15:07:46;3.53;;;2.23;;
10132;SDS011;5106;50.926;7.080;2024-01-16T15:10:12;6.97;;;2.43;;
10132;SDS011;5106;50.926;7.080;2024-01-16T15:12:41;7.27;;;2.30;;
10132;SDS011;5106;50.926;7.080;2024-01-16T15:15:07;6.40;;;2.40;;
10132;SDS011;5106;50.926;7.080;2024-01-16T15:17:35;5.83;;;2.20;;
10132;SDS011;5106;50.926;7.080;2024-01-16T15:20:01;7.37;;;2.80;;